Time;durP1;ratioP1;P1;durP2;ratioP2;P2;SDS_P1;SDS_P2;PMS_P1;PMS_P2;Temp;Humidity;BMP_temperature;BMP_pressure;BME280_temperature;BME280_humidity;BME280_pressure;Samples;Min_cycle;Max_cycle;Signal;HPM_P1;HPM_P2
2023/02/23 00:01:15;;;;;;;17.10;8.52;;;;;;;11.70;59.84;99734.22;4473887;31;20105;-90
2023/02/23 00:03:41;;;;;;;16.30;6.75;;;;;;;11.84;59.85;99729.41;4474236;31;20452;-90
2023/02/23 00:06:07;;;;;;;15.77;7.37;;;;;;;11.79;59.84;99735.69;4458220;32;20116;-90
2023/02/23 00:08:35;;;;;;;17.85;7.05;;;;;;;11.79;59.84;99727.84;4471231;32;20131;-88
2023/02/23 00:11:02;;;;;;;19.87;8.05;;;;;;;11.80;59.83;99733.00;4486728;31;20130;-89
2023/02/23 00:13:28;;;;;;;15.05;6.68;;;;;;;11.69;59.84;99735.13;4471083;32;20116;-89
2023/02/23 00:15:54;;;;;;;16.92;7.22;;;;;;;11.74;59.84;99732.34;4464367;32;20373;-89
2023/02/23 00:18:19;;;;;;;17.40;6.93;;;;;;;11.61;59.83;99735.44;4481592;32;20122;-87
2023/02/23 00:20:56;;;;;;;20.45;7.47;;;;;;;11.69;59.83;99733.38;4478745;32;20140;-89
2023/02/23 00:23:22;;;;;;;21.70;7.40;;;;;;;11.52;59.83;99735.75;4473977;32;20145;-88
2023/02/23 00:25:47;;;;;;;19.17;8.05;;;;;;;11.65;59.82;99728.34;4486695;32;20125;-90
2023/02/23 00:28:13;;;;;;;15.45;6.85;;;;;;;11.53;59.83;99734.00;4484218;31;20093;-90
2023/02/23 00:30:38;;;;;;;20.85;7.30;;;;;;;11.52;59.82;99734.91;4492796;31;20122;-90
2023/02/23 00:33:04;;;;;;;17.48;7.85;;;;;;;11.52;59.83;99735.75;4473637;31;21435;-89
2023/02/23 00:35:29;;;;;;;18.50;7.70;;;;;;;11.54;59.83;99730.47;4485369;31;20182;-89
2023/02/23 00:37:54;;;;;;;21.52;8.25;;;;;;;11.46;59.82;99733.38;4481307;31;20511;-89
2023/02/23 00:40:21;;;;;;;18.83;7.60;;;;;;;11.49;59.82;99724.59;4457705;32;20221;-90
2023/02/23 00:42:48;;;;;;;21.50;7.72;;;;;;;11.43;59.82;99733.47;4471450;31;20176;-90
2023/02/23 00:45:14;;;;;;;15.20;7.35;;;;;;;11.33;59.82;99726.87;4471339;32;20480;-89
2023/02/23 00:47:41;;;;;;;15.63;7.62;;;;;;;11.46;59.82;99738.59;4484178;31;20134;-88
2023/02/23 00:50:11;;;;;;;19.52;7.93;;;;;;;11.38;59.82;99744.06;4471344;32;20174;-88
2023/02/23 00:52:37;;;;;;;20.90;7.60;;;;;;;11.45;59.83;99744.69;4474378;31;20091;-89
2023/02/23 00:55:03;;;;;;;19.52;6.60;;;;;;;11.43;59.81;99740.44;4464169;31;20200;-89
2023/02/23 00:57:29;;;;;;;21.08;7.35;;;;;;;11.35;59.81;99741.56;4474953;31;20140;-89
2023/02/23 00:59:54;;;;;;;16.92;7.03;;;;;;;11.29;59.80;99746.12;4477213;32;20426;-88
2023/02/23 01:02:20;;;;;;;17.15;6.93;;;;;;;11.18;59.80;99743.91;4476108;31;20123;-88
2023/02/23 01:04:45;;;;;;;17.45;7.62;;;;;;;11.15;59.81;99744.03;4469980;32;20115;-87
2023/02/23 01:07:11;;;;;;;21.08;7.25;;;;;;;11.07;59.81;99754.69;4470777;32;20410;-89
2023/02/23 01:09:37;;;;;;;20.12;6.85;;;;;;;11.12;59.80;99745.84;4458167;32;20164;-91
2023/02/23 01:12:06;;;;;;;19.40;7.28;;;;;;;11.17;59.80;99741.37;4462131;31;20361;-89
2023/02/23 01:14:32;;;;;;;20.25;7.07;;;;;;;11.04;59.79;99740.91;4487077;31;20199;-89
2023/02/23 01:16:57;;;;;;;14.45;7.05;;;;;;;10.92;59.79;99739.59;4470974;32;20092;-87
2023/02/23 01:19:23;;;;;;;17.25;6.75;;;;;;;11.00;59.79;99747.16;4470705;32;20092;-88
2023/02/23 01:21:48;;;;;;;15.82;6.53;;;;;;;10.89;59.79;99742.31;4483793;32;20118;-89
2023/02/23 01:24:14;;;;;;;20.88;7.82;;;;;;;10.96;59.79;99748.16;4470859;31;20104;-88
2023/02/23 01:26:41;;;;;;;14.87;6.05;;;;;;;10.92;59.79;99744.81;4470651;31;20104;-89
2023/02/23 01:29:14;;;;;;;21.33;5.57;;;;;;;10.86;59.79;99749.34;4465607;31;20169;-89
2023/02/23 01:31:42;;;;;;;18.20;7.00;;;;;;;10.97;59.79;99744.66;4483207;32;20096;-90
2023/02/23 01:34:10;;;;;;;14.18;6.72;;;;;;;10.87;59.79;99748.44;4464339;32;20172;-89
2023/02/23 01:36:37;;;;;;;19.90;6.95;;;;;;;10.86;59.79;99744.13;4472703;31;20100;-89
2023/02/23 01:39:06;;;;;;;19.05;6.37;;;;;;;10.74;59.78;99742.81;4470982;32;20123;-90
2023/02/23 01:41:31;;;;;;;17.70;7.18;;;;;;;10.75;59.78;99745.34;4487225;31;20471;-90
2023/02/23 01:44:13;;;;;;;13.95;6.10;;;;;;;10.77;59.79;99750.50;4471161;32;20095;-90
2023/02/23 01:46:44;;;;;;;19.35;6.40;;;;;;;10.68;59.77;99748.22;4489332;31;20092;-89
2023/02/23 01:49:14;;;;;;;18.70;6.03;;;;;;;10.63;59.78;99740.53;4472990;31;20076;-89
2023/02/23 01:51:42;;;;;;;17.67;6.40;;;;;;;10.61;59.77;99741.47;4479183;31;20149;-89
2023/02/23 01:54:16;;;;;;;13.15;5.60;;;;;;;10.59;59.77;99740.69;4486417;31;20164;-89
2023/02/23 01:56:44;;;;;;;12.93;5.32;;;;;;;10.59;59.77;99741.53;4477435;32;20474;-88
2023/02/23 01:59:11;;;;;;;17.62;6.12;;;;;;;10.49;59.77;99750.56;4470547;32;20743;-88
2023/02/23 02:01:40;;;;;;;16.67;5.22;;;;;;;10.55;59.76;99744.28;4470749;32;20135;-88
2023/02/23 02:04:06;;;;;;;18.10;5.37;;;;;;;10.56;59.77;99744.25;4483600;32;20456;-89
2023/02/23 02:06:32;;;;;;;14.55;5.32;;;;;;;10.60;59.77;99745.84;4483545;32;20116;-90
2023/02/23 02:09:07;;;;;;;17.27;7.05;;;;;;;10.44;59.76;99734.25;4460305;31;20164;-88
2023/02/23 02:11:37;;;;;;;15.77;5.78;;;;;;;10.56;59.78;99744.25;4470339;31;20444;-88
2023/02/23 02:14:14;;;;;;;17.95;6.18;;;;;;;10.59;59.77;99743.28;4483382;32;20151;-88
2023/02/23 02:17:01;;;;;;;13.52;5.32;;;;;;;10.55;59.77;99742.53;4471111;31;20449;-89
2023/02/23 02:19:57;;;;;;;12.93;5.75;;;;;;;10.44;59.76;99742.91;4483301;31;20211;-89
2023/02/23 02:22:41;;;;;;;15.95;5.72;;;;;;;10.57;59.77;99745.94;4484882;31;20127;-89
2023/02/23 02:25:18;;;;;;;21.02;6.18;;;;;;;10.62;59.76;99738.84;4484693;31;20100;-88
2023/02/23 02:27:43;;;;;;;18.30;5.12;;;;;;;10.47;59.77;99739.34;4483162;32;20099;-88
2023/02/23 02:30:27;;;;;;;13.05;5.53;;;;;;;10.52;59.76;99740.03;4484334;31;20123;-89
2023/02/23 02:33:14;;;;;;;15.07;4.93;;;;;;;10.55;59.76;99736.47;4483146;31;20112;-87
2023/02/23 02:36:05;;;;;;;15.40;4.75;;;;;;;10.52;59.77;99739.19;4484701;31;20092;-89
2023/02/23 02:38:49;;;;;;;21.40;6.10;;;;;;;10.59;59.77;99738.94;4475619;31;20485;-88
2023/02/23 02:41:41;;;;;;;12.80;4.85;;;;;;;10.58;59.78;99739.84;4484390;31;20104;-89
2023/02/23 02:44:27;;;;;;;16.50;4.45;;;;;;;10.38;59.76;99740.47;4471854;32;20096;-88
2023/02/23 02:46:56;;;;;;;11.65;4.28;;;;;;;10.38;59.75;99740.47;4482942;32;20085;-88
2023/02/23 02:49:31;;;;;;;17.17;4.60;;;;;;;10.47;59.77;99741.94;4483246;32;20380;-88
2023/02/23 02:52:19;;;;;;;11.88;5.20;;;;;;;10.44;59.77;99742.91;4470759;32;20457;-89
2023/02/23 02:54:56;;;;;;;12.05;4.57;;;;;;;10.49;59.77;99740.13;4487317;31;20100;-90
2023/02/23 02:57:24;;;;;;;12.95;5.18;;;;;;;10.45;59.76;99736.78;4458105;32;20140;-89
2023/02/23 04:19:11;;;;;;;14.20;5.20;;;;;;;10.37;59.76;99758.72;4480839;31;20080;-92
2023/02/23 04:21:37;;;;;;;13.45;4.75;;;;;;;10.25;59.76;99761.72;4470111;32;20473;-90
2023/02/23 04:24:02;;;;;;;15.18;4.43;;;;;;;10.53;59.76;99759.09;4484065;31;20159;-89
2023/02/23 04:26:28;;;;;;;14.90;4.07;;;;;;;10.34;59.76;99756.22;4471384;32;20093;-89
2023/02/23 04:28:53;;;;;;;9.80;4.30;;;;;;;10.37;59.76;99764.78;4473293;32;20190;-88
2023/02/23 04:31:19;;;;;;;14.75;4.87;;;;;;;10.47;59.77;99757.56;4468183;31;20461;-88
2023/02/23 04:33:44;;;;;;;9.70;4.43;;;;;;;10.50;59.77;99756.59;4487860;32;20285;-88
2023/02/23 04:36:10;;;;;;;14.13;4.30;;;;;;;10.45;59.76;99756.75;4473139;31;20076;-89
2023/02/23 04:38:35;;;;;;;15.73;4.18;;;;;;;10.47;59.77;99760.16;4478194;31;20144;-88
2023/02/23 04:41:00;;;;;;;12.27;4.75;;;;;;;10.22;59.75;99761.81;4488624;31;20211;-88
2023/02/23 04:43:26;;;;;;;17.35;5.05;;;;;;;10.24;59.75;99757.41;4484296;32;20091;-87
2023/02/23 04:45:52;;;;;;;16.48;4.65;;;;;;;10.34;59.76;99762.28;4484174;31;20104;-89
2023/02/23 04:48:17;;;;;;;12.93;5.00;;;;;;;10.29;59.75;99752.91;4478039;31;20103;-89
2023/02/23 04:50:43;;;;;;;13.57;4.55;;;;;;;10.31;59.75;99753.72;4484912;31;20485;-88
2023/02/23 04:53:08;;;;;;;13.25;4.75;;;;;;;10.34;59.76;99758.81;4484075;32;20104;-88
2023/02/23 04:55:33;;;;;;;13.20;4.72;;;;;;;10.25;59.76;99767.78;4470941;31;20857;-87
2023/02/23 04:58:00;;;;;;;19.50;5.50;;;;;;;10.16;59.75;99761.03;4471034;32;20119;-90
2023/02/23 05:00:25;;;;;;;11.93;4.80;;;;;;;10.12;59.75;99763.78;4484728;32;21034;-88
2023/02/23 05:02:51;;;;;;;17.90;5.07;;;;;;;10.16;59.75;99763.66;4483942;32;20136;-88
2023/02/23 05:05:16;;;;;;;14.82;5.57;;;;;;;10.00;59.74;99766.78;4483975;31;20129;-90
2023/02/23 05:07:42;;;;;;;21.35;5.50;;;;;;;10.05;59.74;99759.69;4476206;32;20107;-89
2023/02/23 05:10:09;;;;;;;14.18;5.50;;;;;;;10.05;59.74;99767.47;4494482;31;20100;-89
2023/02/23 05:12:34;;;;;;;14.38;5.25;;;;;;;10.18;59.75;99771.44;4483965;32;20104;-89
2023/02/23 05:14:59;;;;;;;15.77;5.53;;;;;;;10.11;59.75;99775.09;4483680;31;20076;-88
2023/02/23 05:17:25;;;;;;;17.45;5.40;;;;;;;10.04;59.74;99774.44;4484401;32;20513;-90
2023/02/23 05:19:51;;;;;;;16.58;5.47;;;;;;;10.06;59.74;99762.22;4472483;31;20200;-90
2023/02/23 05:22:16;;;;;;;19.23;6.03;;;;;;;9.96;59.74;99771.22;4491918;31;20440;-91
2023/02/23 05:24:42;;;;;;;15.93;6.28;;;;;;;9.93;59.73;99773.88;4484251;31;20096;-92
2023/02/23 05:27:07;;;;;;;16.83;5.45;;;;;;;9.99;59.74;99778.91;4481248;31;20148;-89
2023/02/23 05:29:33;;;;;;;19.87;6.25;;;;;;;9.94;59.74;99783.41;4465739;31;20127;-87
2023/02/23 05:31:58;;;;;;;15.55;5.93;;;;;;;9.87;59.74;99779.25;4470836;32;20108;-90
2023/02/23 05:34:24;;;;;;;13.00;5.78;;;;;;;9.74;59.72;99783.97;4483862;32;20118;-89
2023/02/23 05:36:49;;;;;;;14.32;5.75;;;;;;;9.89;59.73;99776.62;4476865;31;20176;-90
2023/02/23 05:39:15;;;;;;;20.05;5.90;;;;;;;9.99;59.74;99778.91;4470255;31;20140;-89
2023/02/23 05:41:40;;;;;;;18.95;6.55;;;;;;;9.82;59.73;99783.75;4470864;32;20622;-88
2023/02/23 05:44:06;;;;;;;22.00;6.22;;;;;;;9.68;59.72;99785.88;4483847;31;20447;-88
2023/02/23 05:46:31;;;;;;;17.17;5.82;;;;;;;9.85;59.72;99781.06;4463754;31;20136;-88
2023/02/23 05:48:58;;;;;;;12.65;5.87;;;;;;;9.82;59.73;99787.19;4485977;31;20441;-89
2023/02/23 05:51:24;;;;;;;16.05;6.45;;;;;;;9.74;59.73;99785.72;4465058;31;20111;-90
2023/02/23 05:53:50;;;;;;;15.00;5.53;;;;;;;9.83;59.73;99780.25;4476973;31;20148;-89
2023/02/23 05:56:21;;;;;;;19.87;6.05;;;;;;;9.79;59.74;99784.69;4475976;32;20126;-89
2023/02/23 05:58:50;;;;;;;19.75;6.35;;;;;;;9.75;59.72;99788.28;4461191;31;20104;-88
2023/02/23 06:01:16;;;;;;;14.20;6.07;;;;;;;9.78;59.72;99788.19;4483683;32;20110;-89
2023/02/23 06:03:43;;;;;;;14.63;6.12;;;;;;;9.80;59.74;99793.34;4480815;31;20122;-89
2023/02/23 06:06:09;;;;;;;12.43;5.57;;;;;;;9.66;59.72;99796.31;4478570;31;20472;-88
2023/02/23 06:08:34;;;;;;;14.30;6.28;;;;;;;9.84;59.73;99802.75;4485869;31;20126;-89
2023/02/23 06:10:59;;;;;;;21.50;6.70;;;;;;;9.84;59.73;99800.16;4470124;32;20108;-89
2023/02/23 06:13:27;;;;;;;16.70;6.10;;;;;;;9.89;59.73;99805.22;4457588;32;20104;-90
2023/02/23 06:15:53;;;;;;;18.65;6.40;;;;;;;9.91;59.73;99803.41;4470317;32;20111;-90
2023/02/23 06:18:20;;;;;;;19.10;7.13;;;;;;;9.74;59.73;99812.56;4480344;32;20422;-89
2023/02/23 06:20:46;;;;;;;14.63;6.25;;;;;;;9.83;59.73;99808.84;4470060;32;20225;-88
2023/02/23 06:23:11;;;;;;;18.25;6.57;;;;;;;9.94;59.73;99813.75;4469877;32;20155;-89
2023/02/23 06:25:37;;;;;;;15.80;6.35;;;;;;;9.97;59.74;99821.47;4478650;31;20389;-89
2023/02/23 06:28:02;;;;;;;21.50;6.60;;;;;;;9.85;59.73;99830.44;4469616;31;20138;-88
2023/02/23 06:30:28;;;;;;;12.63;5.80;;;;;;;9.88;59.73;99830.34;4470019;32;20108;-88
2023/02/23 06:32:54;;;;;;;17.95;6.47;;;;;;;9.97;59.74;99830.12;4467192;31;20091;-89
2023/02/23 06:35:19;;;;;;;14.45;6.87;;;;;;;10.04;59.74;99830.78;4490896;31;20430;-89
2023/02/23 06:37:45;;;;;;;21.35;6.82;;;;;;;10.03;59.74;99842.94;4447953;31;20191;-89
2023/02/23 06:40:10;;;;;;;19.65;6.60;;;;;;;10.07;59.74;99836.75;4456944;32;20096;-89
2023/02/23 06:42:36;;;;;;;19.62;7.28;;;;;;;10.16;59.74;99838.22;4480434;31;20171;-89
2023/02/23 06:45:02;;;;;;;20.77;7.20;;;;;;;10.08;59.74;99840.22;4460965;32;20418;-88
2023/02/23 06:47:28;;;;;;;18.60;6.95;;;;;;;10.11;59.75;99848.78;4467261;31;20108;-89
2023/02/23 06:49:53;;;;;;;13.68;6.30;;;;;;;10.12;59.75;99855.69;4483030;32;20370;-89
2023/02/23 06:52:19;;;;;;;19.00;7.00;;;;;;;10.12;59.75;99841.81;4483111;31;20140;-89
2023/02/23 06:54:44;;;;;;;20.15;6.32;;;;;;;9.94;59.74;99845.81;4483335;32;20388;-89
2023/02/23 06:57:10;;;;;;;17.30;6.45;;;;;;;9.92;59.73;99849.31;4470127;32;20343;-88
2023/02/23 06:59:35;;;;;;;19.50;6.45;;;;;;;10.11;59.75;99845.31;4457056;32;20437;-90
2023/02/23 07:02:03;;;;;;;19.95;6.37;;;;;;;10.22;59.75;99850.25;4467327;31;20149;-89
2023/02/23 07:04:29;;;;;;;14.65;6.97;;;;;;;10.20;59.75;99847.69;4470487;32;20377;-88
2023/02/23 07:06:54;;;;;;;20.88;6.87;;;;;;;10.17;59.75;99852.94;4480326;31;20167;-89
2023/02/23 07:09:19;;;;;;;17.58;7.03;;;;;;;10.19;59.75;99858.13;4464730;31;20185;-89
2023/02/23 07:11:45;;;;;;;18.73;7.00;;;;;;;10.19;59.75;99852.94;4485221;31;20164;-89
2023/02/23 07:14:10;;;;;;;19.00;6.78;;;;;;;10.21;59.75;99852.00;4478211;31;20195;-90
2023/02/23 07:16:36;;;;;;;15.85;5.62;;;;;;;10.21;59.75;99856.37;4472904;32;20172;-90
2023/02/23 07:19:02;;;;;;;18.98;6.53;;;;;;;10.24;59.75;99858.88;4489256;31;20129;-89
2023/02/23 07:21:28;;;;;;;13.90;6.85;;;;;;;10.39;59.76;99854.06;4485174;32;20089;-88
2023/02/23 07:23:54;;;;;;;13.38;6.22;;;;;;;10.35;59.76;99855.03;4482641;32;20111;-89
2023/02/23 07:26:19;;;;;;;19.50;6.78;;;;;;;10.35;59.76;99864.59;4480217;32;20145;-89
2023/02/23 07:28:44;;;;;;;15.07;6.00;;;;;;;10.32;59.76;99860.34;4475078;31;20499;-89
2023/02/23 07:31:10;;;;;;;14.68;7.18;;;;;;;10.38;59.76;99854.94;4474377;31;20124;-89
2023/02/23 07:33:35;;;;;;;15.32;7.18;;;;;;;10.46;59.76;99859.94;4475112;31;20138;-89
2023/02/23 07:36:01;;;;;;;23.60;7.12;;;;;;;10.53;59.76;99856.25;4487305;31;20160;-89
2023/02/23 07:38:27;;;;;;;18.70;6.03;;;;;;;10.65;59.78;99868.06;4482470;32;20130;-90
2023/02/23 07:40:53;;;;;;;14.95;5.90;;;;;;;10.77;59.79;99859.88;4482418;31;20114;-89
2023/02/23 07:43:23;;;;;;;17.00;6.78;;;;;;;10.88;59.79;99860.38;4483205;32;20100;-89
2023/02/23 07:45:49;;;;;;;17.37;6.72;;;;;;;10.70;59.78;99864.41;4484774;31;20427;-89
2023/02/23 07:48:15;;;;;;;13.35;6.32;;;;;;;10.67;59.77;99866.25;4458988;32;20172;-89
2023/02/23 07:50:41;;;;;;;15.75;6.68;;;;;;;10.80;59.78;99861.50;4484502;31;20117;-89
2023/02/23 07:53:06;;;;;;;18.52;7.22;;;;;;;10.78;59.78;99866.78;4471747;32;20088;-90
2023/02/23 07:55:32;;;;;;;13.57;5.87;;;;;;;10.79;59.78;99862.41;4484395;31;20097;-89
2023/02/23 07:57:57;;;;;;;13.35;6.22;;;;;;;10.81;59.78;99865.81;4471713;32;20097;-90
2023/02/23 08:00:23;;;;;;;19.08;6.45;;;;;;;10.80;59.78;99864.97;4484547;31;20097;-89
2023/02/23 08:02:49;;;;;;;14.63;6.37;;;;;;;11.12;59.80;99858.75;4479044;31;20687;-89
2023/02/23 08:05:15;;;;;;;14.23;6.70;;;;;;;11.11;59.80;99854.41;4488899;31;20105;-90
2023/02/23 08:07:41;;;;;;;18.75;6.47;;;;;;;11.17;59.80;99863.81;4484659;32;20151;-89
2023/02/23 08:10:06;;;;;;;15.82;6.05;;;;;;;11.22;59.80;99854.09;4481652;31;20128;-90
2023/02/23 08:12:33;;;;;;;14.90;6.72;;;;;;;11.23;59.81;99861.84;4471360;32;20115;-89
2023/02/23 08:14:58;;;;;;;18.25;6.90;;;;;;;11.28;59.81;99862.53;4471407;32;20100;-89
2023/02/23 08:17:24;;;;;;;18.87;6.75;;;;;;;11.34;59.82;99867.53;4484538;32;20131;-90
2023/02/23 08:19:49;;;;;;;19.73;6.35;;;;;;;11.20;59.80;99866.31;4471419;32;20104;-90
2023/02/23 08:22:15;;;;;;;18.42;6.35;;;;;;;11.11;59.80;99864.84;4480008;31;20152;-89
2023/02/23 08:24:40;;;;;;;20.00;7.03;;;;;;;11.18;59.80;99863.75;4477022;31;20116;-90
2023/02/23 08:27:05;;;;;;;15.45;6.05;;;;;;;11.20;59.81;99866.31;4483935;31;20092;-90
2023/02/23 08:29:32;;;;;;;19.27;6.07;;;;;;;11.30;59.82;99873.75;4477050;32;20148;-90
2023/02/23 08:31:57;;;;;;;18.85;5.97;;;;;;;11.33;59.81;99868.44;4474722;31;20118;-89
2023/02/23 08:34:23;;;;;;;14.40;6.95;;;;;;;11.49;59.82;99874.00;4485957;31;20093;-90
2023/02/23 08:36:48;;;;;;;21.40;6.45;;;;;;;11.40;59.82;99870.87;4477590;31;20226;-90
2023/02/23 08:39:14;;;;;;;23.83;7.75;;;;;;;11.63;59.83;99868.34;4490454;31;20100;-89
2023/02/23 08:41:39;;;;;;;22.62;6.65;;;;;;;11.62;59.83;99877.94;4490234;32;20081;-88
2023/02/23 08:44:05;;;;;;;21.67;6.82;;;;;;;11.55;59.82;99878.16;4475554;31;20139;-88
2023/02/23 08:46:33;;;;;;;20.52;6.40;;;;;;;11.64;59.83;99876.12;4485085;32;20133;-90
2023/02/23 08:48:59;;;;;;;15.32;6.15;;;;;;;11.67;59.83;99877.75;4468653;31;20507;-90
2023/02/23 08:51:27;;;;;;;14.73;5.82;;;;;;;11.67;59.83;99878.59;4471909;32;20080;-89
2023/02/23 08:53:52;;;;;;;17.55;6.07;;;;;;;11.60;59.83;99884.09;4471947;31;20108;-90
2023/02/23 08:56:18;;;;;;;14.15;5.75;;;;;;;11.48;59.82;99887.94;4478150;31;20100;-90
2023/02/23 08:58:43;;;;;;;11.82;5.57;;;;;;;11.65;59.83;99884.78;4489597;31;20088;-90
2023/02/23 09:01:16;;;;;;;14.13;5.87;;;;;;;11.64;59.83;99877.88;4484772;32;20152;-91
2023/02/23 09:03:44;;;;;;;20.25;6.25;;;;;;;11.68;59.83;99882.91;4481720;31;20112;-88
2023/02/23 09:06:12;;;;;;;76.22;37.30;;;;;;;11.74;59.83;99884.47;4477476;32;20112;-88
2023/02/23 09:08:38;;;;;;;18.75;8.05;;;;;;;11.73;59.83;99882.75;4481906;32;20104;-90
2023/02/23 09:11:03;;;;;;;19.52;7.18;;;;;;;12.07;59.86;99882.47;4471503;32;20543;-90
2023/02/23 09:13:29;;;;;;;19.05;6.87;;;;;;;11.86;59.85;99889.28;4471376;32;20112;-90
2023/02/23 09:15:54;;;;;;;15.07;6.40;;;;;;;12.07;59.86;99886.84;4472230;32;20239;-88
2023/02/23 09:18:22;;;;;;;33.22;24.02;;;;;;;12.21;59.87;99884.56;4484717;31;20093;-90
2023/02/23 09:20:50;;;;;;;21.08;7.43;;;;;;;12.22;59.87;99892.34;4471632;32;20115;-89
2023/02/23 09:23:16;;;;;;;23.95;12.30;;;;;;;12.44;59.87;99879.34;4476320;31;20494;-90
2023/02/23 09:25:42;;;;;;;16.42;7.10;;;;;;;12.42;59.88;99883.78;4472343;32;20199;-90
2023/02/23 09:28:14;;;;;;;15.63;5.95;;;;;;;12.60;59.89;99882.22;4484644;31;20085;-88
2023/02/23 09:30:40;;;;;;;17.20;7.50;;;;;;;12.46;59.87;99887.97;4471862;32;20096;-91
2023/02/23 09:33:06;;;;;;;17.55;6.47;;;;;;;12.55;59.88;99887.63;4469026;31;20132;-90
2023/02/23 09:35:32;;;;;;;14.60;6.47;;;;;;;12.62;59.89;99879.56;4471915;32;20355;-90
2023/02/23 09:37:57;;;;;;;23.85;8.00;;;;;;;12.56;59.88;99886.72;4471968;32;20092;-91
2023/02/23 09:40:27;;;;;;;19.58;7.12;;;;;;;12.53;59.88;99880.75;4464509;32;20151;-88
2023/02/23 09:43:05;;;;;;;14.48;6.40;;;;;;;12.52;59.88;99889.50;4485382;31;20175;-90
2023/02/23 09:45:37;;;;;;;14.90;6.45;;;;;;;12.51;59.88;99893.00;4480958;31;231882;-90
2023/02/23 09:48:22;;;;;;;15.23;5.93;;;;;;;12.57;59.89;99893.66;4486176;31;20457;-91
2023/02/23 09:51:07;;;;;;;40.40;16.70;;;;;;;12.69;59.89;99889.72;4471620;31;20113;-89
2023/02/23 09:54:01;;;;;;;32.60;13.32;;;;;;;12.65;59.88;99887.28;4484450;32;20165;-90
2023/02/23 09:56:36;;;;;;;22.33;6.95;;;;;;;12.83;59.90;99894.41;4476464;32;20104;-90
2023/02/23 09:59:06;;;;;;;17.33;6.37;;;;;;;12.93;59.90;99893.13;4475680;31;20147;-90
2023/02/23 10:01:47;;;;;;;13.10;6.90;;;;;;;12.98;59.91;99892.94;4466297;32;20073;-90
2023/02/23 10:04:31;;;;;;;15.55;6.25;;;;;;;12.98;59.91;99885.94;4490307;31;20091;-90
2023/02/23 10:07:20;;;;;;;17.50;6.60;;;;;;;12.91;59.91;99890.56;4486440;31;20108;-90
2023/02/23 10:10:04;;;;;;;25.05;9.52;;;;;;;12.91;59.90;99897.56;4485038;31;20100;-89
2023/02/23 10:12:38;;;;;;;18.33;7.28;;;;;;;12.93;59.90;99890.50;4484244;32;20140;-90
2023/02/23 10:15:07;;;;;;;17.27;6.55;;;;;;;13.00;59.91;99897.19;4489164;31;20100;-89
2023/02/23 10:17:59;;;;;;;25.17;8.10;;;;;;;13.04;59.91;99890.97;4490790;31;20139;-90
2023/02/23 10:20:38;;;;;;;10.48;4.95;;;;;;;13.17;59.91;99888.69;4471671;32;20084;-90
2023/02/23 10:23:06;;;;;;;16.62;6.03;;;;;;;13.08;59.91;99897.75;4484002;32;20096;-91
2023/02/23 10:25:36;;;;;;;23.75;7.72;;;;;;;13.29;59.92;99888.25;4484329;32;20113;-89
2023/02/23 10:28:01;;;;;;;;;;;;;;;13.28;59.93;99893.53;4471689;31;20151;-90
2023/02/23 10:30:28;;;;;;;16.53;6.10;;;;;;;13.37;59.93;99887.91;4483960;32;19984;-90
2023/02/23 10:33:06;;;;;;;13.30;5.95;;;;;;;13.30;59.92;99884.72;4483459;31;20169;-90
2023/02/23 10:35:32;;;;;;;19.48;7.62;;;;;;;13.22;59.92;99886.75;4478837;31;20793;-90
2023/02/23 10:37:59;;;;;;;22.77;6.87;;;;;;;13.34;59.93;99881.06;4460192;32;20123;-91
2023/02/23 10:40:27;;;;;;;15.90;6.95;;;;;;;13.41;59.92;99877.25;4464036;32;20154;-90
2023/02/23 10:43:27;;;;;;;;;;;;;;;;;;;;;
2023/02/23 10:45:53;;;;;;;15.98;6.03;;;;;;;13.63;59.94;99871.97;4472195;31;35565;-89
2023/02/23 10:48:23;;;;;;;15.80;6.53;;;;;;;13.57;59.95;99866.16;4483235;32;20495;-90
2023/02/23 10:50:51;;;;;;;13.55;6.72;;;;;;;13.61;59.94;99860.72;4470714;31;20096;-89
2023/02/23 10:53:26;;;;;;;16.02;6.72;;;;;;;13.73;59.95;99865.47;4457652;32;20092;-91
2023/02/23 10:56:05;;;;;;;13.07;6.78;;;;;;;13.72;59.95;99862.88;4471511;32;20121;-90
2023/02/23 10:58:30;;;;;;;14.00;6.53;;;;;;;13.58;59.94;99854.78;4484658;31;20109;-89
2023/02/23 11:01:00;;;;;;;21.27;7.60;;;;;;;13.54;59.93;99855.84;4469875;32;20448;-89
2023/02/23 11:03:32;;;;;;;20.20;7.72;;;;;;;13.46;59.93;99853.53;4478941;31;20798;-89
2023/02/23 11:06:26;;;;;;;17.20;6.50;;;;;;;13.62;59.94;99862.44;4470844;32;20104;-87
2023/02/23 11:08:54;;;;;;;21.08;8.50;;;;;;;13.82;59.96;99851.13;4483304;32;20105;-91
2023/02/23 11:11:27;;;;;;;32.92;19.17;;;;;;;13.73;59.95;99847.16;4469877;31;20096;-90
2023/02/23 11:13:53;;;;;;;25.10;10.85;;;;;;;13.63;59.94;99844.97;4483481;32;20436;-88
2023/02/23 11:16:27;;;;;;;17.08;9.13;;;;;;;13.83;59.96;99843.19;4456917;31;20127;-89
2023/02/23 11:19:00;;;;;;;18.05;8.05;;;;;;;13.93;59.95;99838.41;4475947;32;20105;-89
2023/02/23 11:21:33;;;;;;;22.17;6.75;;;;;;;13.98;59.96;99835.59;4483152;31;20088;-89
2023/02/23 11:24:20;;;;;;;23.00;11.60;;;;;;;13.99;59.96;99835.53;4485913;32;20117;-90
2023/02/23 11:26:47;;;;;;;20.02;8.00;;;;;;;13.93;59.95;99827.09;4472208;32;20077;-88
2023/02/23 11:29:24;;;;;;;18.15;7.75;;;;;;;14.03;59.97;99828.38;4461629;32;20464;-89
2023/02/23 11:31:54;;;;;;;16.15;7.03;;;;;;;13.99;59.96;99829.44;4472380;32;20159;-89
2023/02/23 11:34:42;;;;;;;15.07;6.20;;;;;;;13.83;59.95;99832.72;4485205;32;20108;-89
2023/02/23 11:37:15;;;;;;;20.50;7.87;;;;;;;13.83;59.96;99822.28;4469744;32;20504;-89
2023/02/23 11:40:00;;;;;;;18.40;6.00;;;;;;;13.90;59.96;99824.59;4484994;32;20100;-89
2023/02/23 11:42:32;;;;;;;15.27;6.65;;;;;;;13.79;59.95;99825.09;4484907;31;20119;-88
2023/02/23 11:45:04;;;;;;;18.80;6.37;;;;;;;13.90;59.96;99817.59;4472794;32;20119;-89
2023/02/23 11:47:34;;;;;;;15.02;6.68;;;;;;;13.94;59.96;99813.06;4472076;31;20155;-90
2023/02/23 11:50:00;;;;;;;17.08;7.07;;;;;;;13.96;59.97;99821.69;4467229;31;20509;-89
2023/02/23 11:52:26;;;;;;;10.80;5.22;;;;;;;13.82;59.95;99814.50;4474785;31;20084;-89
2023/02/23 11:54:56;;;;;;;19.55;6.82;;;;;;;13.87;59.95;99819.50;4472193;32;20146;-89
2023/02/23 11:57:22;;;;;;;;;;;;;;;14.00;59.96;99816.28;4472204;31;20540;-89
2023/02/23 11:59:48;;;;;;;12.23;5.85;;;;;;;14.05;59.97;99809.06;4492125;31;19996;-89
2023/02/23 12:02:24;;;;;;;16.90;6.18;;;;;;;14.17;59.99;99806.81;4471437;32;20104;-89
2023/02/23 12:05:16;;;;;;;23.80;7.35;;;;;;;14.06;59.97;99808.16;4484873;32;20096;-89
2023/02/23 12:08:05;;;;;;;18.45;6.35;;;;;;;14.04;59.97;99809.16;4480974;32;20096;-89
2023/02/23 12:10:42;;;;;;;18.67;6.72;;;;;;;14.00;59.96;99805.81;4485344;32;20100;-90
2023/02/23 12:13:26;;;;;;;16.33;6.07;;;;;;;14.13;59.97;99806.94;4484826;31;20095;-89
2023/02/23 12:15:55;;;;;;;20.05;7.47;;;;;;;14.21;59.98;99801.38;4484846;32;20123;-89
2023/02/23 12:18:44;;;;;;;14.95;6.55;;;;;;;14.06;59.96;99796.84;4470173;32;20121;-89
2023/02/23 12:21:13;;;;;;;13.57;5.43;;;;;;;14.14;59.97;99792.09;4467161;31;20127;-90
2023/02/23 12:23:39;;;;;;;14.35;6.57;;;;;;;14.09;59.98;99794.94;4478363;31;20096;-90
2023/02/23 12:26:08;;;;;;;19.15;7.03;;;;;;;13.94;59.96;99786.91;4485766;31;20110;-90
2023/02/23 12:28:39;;;;;;;14.90;7.30;;;;;;;13.80;59.96;99780.53;4473030;31;20168;-91
2023/02/23 12:31:22;;;;;;;17.45;6.85;;;;;;;13.78;59.95;99779.78;4487230;31;20225;-89
2023/02/23 12:33:58;;;;;;;17.35;6.95;;;;;;;13.81;59.96;99774.41;4472557;32;20104;-91
2023/02/23 12:36:41;;;;;;;13.57;6.40;;;;;;;13.79;59.96;99776.22;4472809;32;20097;-89
2023/02/23 12:39:35;;;;;;;17.83;6.62;;;;;;;13.77;59.95;99774.59;4488065;31;20134;-90
2023/02/23 12:42:17;;;;;;;14.85;6.35;;;;;;;13.77;59.95;99774.59;4485012;31;20464;-90
2023/02/23 12:44:52;;;;;;;12.32;6.57;;;;;;;13.97;59.97;99769.31;4482902;32;20083;-90
2023/02/23 12:47:43;;;;;;;14.73;6.03;;;;;;;14.00;59.96;99760.47;4468410;31;20112;-90
2023/02/23 12:50:32;;;;;;;16.55;5.97;;;;;;;13.93;59.95;99756.44;4479226;32;20131;-89
2023/02/23 12:53:27;;;;;;;16.58;6.37;;;;;;;13.92;59.95;99757.34;4484641;32;20104;-89
2023/02/23 12:56:17;;;;;;;17.55;5.90;;;;;;;13.97;59.96;99750.16;4470973;32;20119;-89
2023/02/23 12:59:16;;;;;;;15.07;6.78;;;;;;;13.97;59.96;99752.78;4485224;31;20111;-91